Terminal Aerodrome Forecast
Issued by NWS

Home | Current Version | Previous Version | Text Only | Print | Product List | Glossary On
Versions: 1 2 3 4 5 6 7 8 9 10 11 12 13 14 15 16 17 18
586
FTUS46 KMFR 032325
TAFLMT
TAF
KLMT 032325Z 0400/0424 VRB03KT P6SM SCT060
     FM041000 VRB03KT P6SM OVC050
     FM041600 21011KT P6SM OVC045
     FM042100 17012G20KT P6SM -SHRA OVC040=

USA.gov is the U.S. government's official web portal to all federal, state and local government web resources and services.